Bruk link Alternativ webside om du vil se statistikk,rapport,graf,analyse og mye mer.

Vårt webkamera more information My webcam


webkamera på Randaberg more information webcam on Randaberg


Nedbørsradar  rain snow radar


Besøk vår andre værside:

Alternativ webside

Alternativ mobil

Regnskvett RandabergWebsite of another weatherstation



Ikke nødvendig med spesiell oppmerksomhet.    Det er ingen advarsler

Nære METAR rapporter

   
ENHD - Haugesund
oppdatert: 18-05-2021 18:20
Delvis Skyet  
Delvis Skyet  
   Vind: VEST 3.1 m/s
Vind: VEST 3.1 m/s
Temperatur: 10°C
Wind Chill: 8°C
Duggpunkt: 7°C
Fuktighet: 82%
Barometer: 1009 hPa
Skyer: Delvis Skyet
Sikt: More than 10 km
Skydetaljer: få skyer 304.8 m,
Delvis Skyet 1676.4 m
ENHD 181620Z 27006KT 9999 FEW010 SCT055 10/07 Q1009
ENZV - Randaberg
oppdatert: 18-05-2021 18:20
For det meste skyet  
For det meste skyet  
   Vind: VEST 4.1 m/s
Vind: VEST 4.1 m/s
Temperatur: 10°C
Wind Chill: 8°C
Duggpunkt: 7°C
Fuktighet: 82%
Barometer: 1010 hPa
Skyer: For det meste skyet
Sikt: More than 10 km
Skydetaljer: få skyer 609.6 m,
For det meste skyet 1676.4 m
ENZV 181620Z 28008KT 9999 FEW020CB BKN055 10/07 Q1010 NOSIG
ENBR - Bergen
oppdatert: 18-05-2021 18:20
For det meste skyet  
For det meste skyet  
   Vind: SSV 3.6 m/s
Vind: SSV 3.6 m/s
Temperatur: 10°C
Wind Chill: 8°C
Duggpunkt: 6°C
Fuktighet: 76%
Barometer: 1009 hPa
Skyer: For det meste skyet
Sikt: More than 10 km
Skydetaljer: Delvis Skyet 762 m,
For det meste skyet 1524 m
ENBR 181620Z 20007KT 9999 SCT025 BKN050 10/06 Q1009 NOSIG RMK WIND 1200FT 22008KT
ENCN - Kristiansand
oppdatert: 18-05-2021 18:20
Klart  
Klart  
   Vind: VEST 6.2 m/s
Vind: VEST 6.2 m/s
Temperatur: 15°C
Duggpunkt: 3°C
Fuktighet: 45%
Barometer: 1006 hPa
Sikt: More than 10 km
Skydetaljer: Klart
ENCN 181620Z 27012KT 230V300 CAVOK 15/03 Q1006
ENGM - Oslo
oppdatert: 18-05-2021 18:20
Nearby Showers, Overskyet  
Nearby Showers, Overskyet  
   Vind: SØ 4.6 m/s
Vind: SØ 4.6 m/s
Temperatur: 13°C
Duggpunkt: 5°C
Fuktighet: 59%
Barometer: 1006 hPa
Skyer: Overskyet
Sikt: More than 10 km
Skydetaljer: få skyer 579.1 m,
Overskyet 2164.1 m
ENGM 181620Z 13009KT 9999 VCSH FEW019 OVC071 13/05 Q1006 NOSIG
ENVA - Trondheim
oppdatert: 18-05-2021 18:20
For det meste skyet  
For det meste skyet  
   Vind: VEST 2.1 m/s
Vind: VEST 2.1 m/s
Temperatur: 12°C
Duggpunkt: 6°C
Fuktighet: 67%
Barometer: 1006 hPa
Skyer: For det meste skyet
Sikt: More than 10 km
Skydetaljer: få skyer 701 m,
For det meste skyet 1371.6 m
ENVA 181620Z 28004KT 240V310 9999 FEW023 BKN045 12/06 Q1006 NOSIG RMK WIND 670FT VRB01KT

Script utviklet av  Saratoga-weather.org Tilrettelagt for malen av  Weerstation Leuven

Du finner vår vær info også på:

European Weather Network

WeatherCloud

Weather Underground

Citizen Weather Observer Program (CWOP)

Utstyr vi bruker:

Værstsjon
Oregon scientific WMR 300

Værprogram
Meteobridge

Oregon scientific WMR 300

Meteobridge